Shaoguan, China
Current Conditions -  °F | °C
As of 2:30 PM on Saturday 25 Oct 2014 (Local Time) from ZGGG Reporting Station
Few Clouds Few Clouds  
Wind Chill: 84°   Ceiling: Unl
Heat Index: 86°   Visibility: 4mi
Dew Point: 66°   Wind: 4mph
Humidity: 55%   Direction: NA
Pressure: 29.97"   Gusts: NA
Location:  24.8°N, 113.58°E
Report Text: ZGGG 250630Z VRB02MPS 6000 FEW033 29/19 Q1015 NOSIG
Loading
Personal Weather Stations






























Interactive Weather Map
Tropical Storm Tracking
New forecast layout! Learn more

10-Day Weather Forecast

Advertisements
Track Severe Weather on mobile